createdAt,value
2022-08-18T00:00:54.477Z,9.30
2022-08-18T00:03:10.541Z,11.37
2022-08-18T00:05:23.378Z,9.73
2022-08-18T00:07:29.272Z,10.20
2022-08-18T00:09:32.667Z,10.90
2022-08-18T00:11:40.522Z,10.30
2022-08-18T00:13:42.986Z,9.50
2022-08-18T00:15:48.765Z,11.10
2022-08-18T00:17:51.579Z,10.97
2022-08-18T00:19:53.692Z,9.97
2022-08-18T00:21:56.149Z,9.50
2022-08-18T00:23:58.117Z,9.23
2022-08-18T00:26:00.404Z,11.97
2022-08-18T00:28:02.729Z,10.90
2022-08-18T00:30:07.567Z,10.70
2022-08-18T00:32:17.666Z,10.77
2022-08-18T00:34:19.875Z,10.83
2022-08-18T00:36:22.280Z,12.03
2022-08-18T00:38:25.522Z,9.67
2022-08-18T00:40:38.374Z,10.53
2022-08-18T00:42:55.512Z,10.90
2022-08-18T00:45:02.974Z,11.23
2022-08-18T00:47:06.464Z,11.43
2022-08-18T00:49:08.614Z,10.77
2022-08-18T00:51:21.048Z,12.13
2022-08-18T00:53:33.465Z,10.33
2022-08-18T00:55:35.984Z,11.30
2022-08-18T00:57:38.973Z,11.40
2022-08-18T00:59:48.042Z,10.83
2022-08-18T01:01:51.247Z,10.60
2022-08-18T01:03:59.676Z,10.03
2022-08-18T01:06:09.722Z,12.00
2022-08-18T01:08:14.419Z,10.40
2022-08-18T01:10:20.406Z,11.77
2022-08-18T01:12:45.024Z,11.07
2022-08-18T01:14:45.118Z,11.30
2022-08-18T01:17:07.476Z,10.70
2022-08-18T01:19:27.925Z,11.77
2022-08-18T01:21:50.001Z,12.47
2022-08-18T01:23:53.957Z,11.23
2022-08-18T01:26:04.322Z,11.50
2022-08-18T01:28:07.193Z,10.20
2022-08-18T01:30:14.151Z,11.43
2022-08-18T01:32:19.738Z,11.57
2022-08-18T01:34:24.807Z,11.00
2022-08-18T01:36:27.051Z,11.40
2022-08-18T01:38:32.174Z,12.03
2022-08-18T01:41:11.215Z,11.40
2022-08-18T01:42:56.892Z,11.33
2022-08-18T01:44:59.159Z,11.43
2022-08-18T01:47:01.321Z,12.33
2022-08-18T01:49:04.309Z,12.30
2022-08-18T01:51:08.047Z,12.20
2022-08-18T01:53:11.606Z,11.17
2022-08-18T01:55:14.641Z,11.20
2022-08-18T01:57:18.619Z,11.03
2022-08-18T01:59:20.758Z,10.50
2022-08-18T02:01:24.238Z,10.80
2022-08-18T02:03:42.002Z,10.93
2022-08-18T02:05:47.546Z,11.60
2022-08-18T02:07:53.975Z,12.07
2022-08-18T02:09:58.304Z,11.50
2022-08-18T02:12:01.623Z,11.63
2022-08-18T02:14:03.703Z,12.67
2022-08-18T02:16:06.290Z,12.47
2022-08-18T02:18:25.725Z,12.93
2022-08-18T02:20:44.783Z,12.00
2022-08-18T02:22:47.881Z,12.17
2022-08-18T02:24:50.302Z,11.97
2022-08-18T02:26:52.263Z,11.10
2022-08-18T02:28:54.327Z,11.97
2022-08-18T02:30:56.359Z,13.07
2022-08-18T02:32:59.241Z,11.63
2022-08-18T02:35:01.743Z,12.07
2022-08-18T02:37:04.400Z,12.13
2022-08-18T02:39:06.499Z,11.60
2022-08-18T02:41:10.927Z,12.17
2022-08-18T02:43:12.995Z,12.00
2022-08-18T02:45:15.133Z,11.83
2022-08-18T02:47:20.566Z,12.10
2022-08-18T02:49:22.848Z,11.43
2022-08-18T02:51:25.866Z,11.60
2022-08-18T02:53:28.962Z,11.20
2022-08-18T02:55:31.381Z,11.70
2022-08-18T02:57:34.482Z,12.20
2022-08-18T02:59:38.611Z,11.70
2022-08-18T03:01:45.423Z,11.03
2022-08-18T03:03:48.570Z,11.60
2022-08-18T03:05:50.640Z,12.30
2022-08-18T03:07:52.862Z,12.77
2022-08-18T03:09:55.029Z,11.53
2022-08-18T03:11:57.748Z,12.20
2022-08-18T03:14:00.532Z,11.60
2022-08-18T03:16:02.585Z,11.80
2022-08-18T03:18:04.724Z,11.43
2022-08-18T03:20:07.780Z,10.23
2022-08-18T03:22:27.635Z,10.70
2022-08-18T03:24:32.919Z,11.00
2022-08-18T03:26:35.799Z,10.80
2022-08-18T03:28:40.601Z,11.27
2022-08-18T03:30:43.667Z,10.60
2022-08-18T03:32:46.700Z,11.40
2022-08-18T03:34:49.603Z,11.40
2022-08-18T03:36:51.917Z,10.83
2022-08-18T03:38:54.400Z,10.93
2022-08-18T03:40:56.480Z,11.77
2022-08-18T03:42:58.538Z,11.07
2022-08-18T03:45:12.497Z,11.20
2022-08-18T03:47:19.793Z,10.87
2022-08-18T03:49:22.373Z,10.80
2022-08-18T03:51:26.784Z,10.73
2022-08-18T03:53:28.908Z,11.07
2022-08-18T03:55:32.095Z,11.03
2022-08-18T03:57:34.406Z,11.50
2022-08-18T03:59:43.504Z,12.10
2022-08-18T04:01:49.309Z,11.20
2022-08-18T04:03:56.754Z,11.70
2022-08-18T04:05:58.824Z,11.47
2022-08-18T04:08:02.906Z,11.17
2022-08-18T04:10:05.332Z,11.57
2022-08-18T04:12:17.388Z,12.77
2022-08-18T04:14:25.060Z,10.60
2022-08-18T04:16:28.594Z,11.10
2022-08-18T04:18:31.737Z,11.53
2022-08-18T04:20:34.278Z,10.23
2022-08-18T04:22:36.354Z,10.80
2022-08-18T04:24:38.428Z,10.10
2022-08-18T04:26:46.539Z,10.17
2022-08-18T04:28:48.752Z,10.33
2022-08-18T04:30:50.882Z,10.30
2022-08-18T04:32:53.743Z,9.70
2022-08-18T04:34:56.017Z,10.37
2022-08-18T04:37:00.674Z,10.10
2022-08-18T04:39:04.693Z,10.03
2022-08-18T04:41:06.868Z,10.10
2022-08-18T04:43:15.277Z,11.10
2022-08-18T04:45:17.683Z,10.10
2022-08-18T04:47:20.227Z,9.77
2022-08-18T04:49:26.021Z,9.73
2022-08-18T04:52:26.795Z,10.20
2022-08-18T04:53:52.043Z,8.30
2022-08-18T04:55:55.918Z,8.93
2022-08-18T04:57:59.491Z,8.83
2022-08-18T05:00:02.870Z,8.70
2022-08-18T05:02:12.684Z,8.37
2022-08-18T05:04:17.737Z,9.43
2022-08-18T05:06:21.450Z,9.70
2022-08-18T05:08:23.479Z,10.90
2022-08-18T05:10:25.605Z,9.63
2022-08-18T05:12:28.383Z,9.00
2022-08-18T05:14:31.420Z,10.27
2022-08-18T05:16:36.462Z,8.80
2022-08-18T05:18:50.478Z,9.00
2022-08-18T05:20:55.868Z,9.33
2022-08-18T05:22:58.947Z,8.37
2022-08-18T05:25:01.060Z,9.40
2022-08-18T05:27:03.907Z,9.03
2022-08-18T05:29:18.856Z,9.40
2022-08-18T05:31:23.922Z,9.07
2022-08-18T05:33:26.050Z,9.47
2022-08-18T05:35:36.557Z,8.70
2022-08-18T05:37:54.359Z,9.20
2022-08-18T05:40:07.569Z,9.23
2022-08-18T05:42:16.692Z,9.07
2022-08-18T05:44:25.497Z,9.03
2022-08-18T05:46:48.111Z,9.33
2022-08-18T05:48:50.490Z,11.70
2022-08-18T05:50:52.647Z,9.20
2022-08-18T05:53:13.582Z,9.23
2022-08-18T05:55:41.863Z,9.60
2022-08-18T05:57:52.433Z,9.80
2022-08-18T05:59:55.403Z,9.30
2022-08-18T06:02:11.586Z,9.37
2022-08-18T06:04:26.339Z,10.13
2022-08-18T06:06:32.134Z,10.50
2022-08-18T06:08:43.827Z,9.90
2022-08-18T06:10:48.916Z,10.60
2022-08-18T06:12:56.751Z,10.17
2022-08-18T06:15:06.281Z,10.40
2022-08-18T06:17:46.640Z,9.80
2022-08-18T06:20:34.710Z,10.00
2022-08-18T06:22:36.741Z,10.37
2022-08-18T06:25:10.095Z,10.33
2022-08-18T06:27:40.328Z,11.70
2022-08-18T06:30:12.981Z,9.30
2022-08-18T06:32:21.150Z,10.00
2022-08-18T06:34:44.584Z,10.10
2022-08-18T06:36:53.789Z,10.43
2022-08-18T06:39:02.471Z,10.37
2022-08-18T06:41:42.330Z,10.00
2022-08-18T06:43:39.524Z,10.50
2022-08-18T06:45:45.547Z,10.97
2022-08-18T06:47:58.444Z,11.37
2022-08-18T06:50:21.610Z,10.80
2022-08-18T06:52:30.739Z,12.40
2022-08-18T06:54:32.791Z,13.90
2022-08-18T06:56:40.351Z,11.57
2022-08-18T06:58:42.422Z,13.00
2022-08-18T07:00:55.077Z,12.23
2022-08-18T07:03:12.402Z,13.53
2022-08-18T07:05:14.450Z,14.17
2022-08-18T07:07:20.545Z,13.93
2022-08-18T07:09:24.971Z,14.57
2022-08-18T07:11:29.976Z,14.10
2022-08-18T07:13:41.865Z,15.57
2022-08-18T07:15:45.563Z,14.07
2022-08-18T07:17:49.192Z,13.00
2022-08-18T07:20:06.294Z,14.53
2022-08-18T07:22:14.641Z,12.23
2022-08-18T07:24:26.198Z,13.53
2022-08-18T07:26:28.390Z,14.23
2022-08-18T07:28:44.402Z,13.03
2022-08-18T07:31:00.437Z,13.70
2022-08-18T07:33:22.747Z,14.20
2022-08-18T07:35:32.928Z,13.40
2022-08-18T07:37:53.437Z,13.37
2022-08-18T07:40:01.985Z,15.90
2022-08-18T07:42:11.250Z,15.40
2022-08-18T07:44:27.535Z,15.20
2022-08-18T07:46:50.465Z,13.83
2022-08-18T07:48:52.493Z,14.90
2022-08-18T07:51:13.711Z,16.17
2022-08-18T07:53:56.728Z,15.90
2022-08-18T07:56:03.916Z,16.10
2022-08-18T07:58:15.005Z,17.07
2022-08-18T08:00:41.210Z,15.47
2022-08-18T08:03:29.589Z,16.50
2022-08-18T08:05:50.767Z,19.87
2022-08-18T08:07:52.991Z,20.33
2022-08-18T08:10:20.203Z,18.37
2022-08-18T08:12:41.314Z,17.80
2022-08-18T08:14:48.988Z,17.93
2022-08-18T08:17:14.087Z,17.97
2022-08-18T08:20:00.540Z,18.57
2022-08-18T08:22:27.571Z,18.40
2022-08-18T08:24:53.872Z,16.67
2022-08-18T08:27:01.983Z,20.03
2022-08-18T08:29:10.282Z,17.40
2022-08-18T08:31:36.585Z,16.73
2022-08-18T08:33:47.396Z,17.83
2022-08-18T08:35:55.940Z,16.70
2022-08-18T08:38:39.438Z,14.80
2022-08-18T08:41:16.351Z,15.60
2022-08-18T08:43:26.257Z,16.03
2022-08-18T08:45:34.433Z,15.40
2022-08-18T08:48:04.332Z,14.43
2022-08-18T08:50:18.242Z,14.20
2022-08-18T08:52:28.301Z,13.30
2022-08-18T08:54:39.199Z,12.93
2022-08-18T08:56:45.642Z,13.00
2022-08-18T08:59:07.750Z,13.93
2022-08-18T09:01:20.847Z,13.50
2022-08-18T09:03:30.235Z,11.73
2022-08-18T09:05:57.253Z,10.83
2022-08-18T09:08:27.076Z,12.37
2022-08-18T09:10:36.650Z,11.13
2022-08-18T09:12:44.833Z,10.83
2022-08-18T09:15:30.095Z,11.17
2022-08-18T09:17:34.455Z,10.40
2022-08-18T09:19:59.524Z,10.37
2022-08-18T09:22:20.048Z,10.90
2022-08-18T09:24:29.596Z,11.57
2022-08-18T09:26:39.082Z,10.77
2022-08-18T09:28:59.892Z,11.77
2022-08-18T09:31:01.952Z,11.00
2022-08-18T09:33:20.666Z,10.33
2022-08-18T09:35:43.557Z,11.77
2022-08-18T09:37:45.556Z,11.20
2022-08-18T09:40:18.682Z,10.17
2022-08-18T09:42:50.027Z,11.60
2022-08-18T09:44:52.657Z,10.70
2022-08-18T09:46:57.378Z,12.50
2022-08-18T09:49:22.800Z,11.80
2022-08-18T09:51:40.059Z,12.30
2022-08-18T09:53:46.075Z,12.07
2022-08-18T09:56:01.431Z,11.50
2022-08-18T09:58:26.288Z,11.13
2022-08-18T10:00:33.333Z,11.10
2022-08-18T10:02:38.165Z,10.13
2022-08-18T10:04:54.067Z,11.30
2022-08-18T10:07:17.526Z,10.40
2022-08-18T10:09:43.978Z,10.47
2022-08-18T10:12:16.175Z,10.27
2022-08-18T10:14:51.343Z,9.93
2022-08-18T10:17:23.751Z,10.03
2022-08-18T10:19:54.952Z,9.90
2022-08-18T10:21:58.476Z,10.20
2022-08-18T10:24:35.841Z,9.67
2022-08-18T10:26:54.229Z,10.57
2022-08-18T10:29:03.533Z,10.50
2022-08-18T10:31:09.732Z,10.47
2022-08-18T10:33:18.306Z,9.83
2022-08-18T10:35:36.175Z,9.73
2022-08-18T10:40:13.582Z,10.30
2022-08-18T10:42:30.927Z,10.83
2022-08-18T10:44:40.484Z,10.10
2022-08-18T10:46:46.591Z,9.93
2022-08-18T10:49:08.884Z,10.40
2022-08-18T10:51:37.793Z,11.13
2022-08-18T10:54:05.265Z,9.13
2022-08-18T10:56:29.287Z,9.83
2022-08-18T10:58:42.851Z,10.20
2022-08-18T11:01:03.474Z,9.93
2022-08-18T11:03:52.072Z,9.17
2022-08-18T11:05:49.298Z,10.77
2022-08-18T11:08:01.723Z,9.00
2022-08-18T11:10:31.901Z,9.53
2022-08-18T11:13:07.705Z,9.83
2022-08-18T11:18:15.161Z,8.93
2022-08-18T11:20:18.319Z,8.90
2022-08-18T11:22:34.083Z,8.23
2022-08-18T11:24:54.404Z,9.27
2022-08-18T11:27:18.355Z,8.90
2022-08-18T11:29:35.143Z,9.30
2022-08-18T11:31:38.344Z,8.73
2022-08-18T11:33:42.048Z,8.70
2022-08-18T11:35:58.091Z,8.73
2022-08-18T11:38:03.713Z,9.17
2022-08-18T11:43:10.052Z,8.10
2022-08-18T11:45:24.620Z,8.70
2022-08-18T11:47:30.073Z,8.53
2022-08-18T11:49:34.082Z,7.70
2022-08-18T11:51:36.352Z,8.80
2022-08-18T11:53:44.246Z,7.70
2022-08-18T11:56:13.324Z,8.27
2022-08-18T11:58:40.075Z,8.40
2022-08-18T12:00:54.966Z,7.90
2022-08-18T12:03:11.102Z,9.37
2022-08-18T12:05:13.369Z,7.80
2022-08-18T12:07:20.602Z,8.00
2022-08-18T12:10:15.958Z,8.20
2022-08-18T12:12:22.579Z,7.80
2022-08-18T12:14:30.645Z,7.60
2022-08-18T12:16:51.434Z,8.13
2022-08-18T12:18:56.430Z,8.10
2022-08-18T12:20:59.197Z,7.87
2022-08-18T12:23:01.618Z,8.50
2022-08-18T12:25:06.177Z,7.70
2022-08-18T12:27:21.714Z,7.60
2022-08-18T12:29:30.926Z,8.00
2022-08-18T12:31:42.317Z,8.10
2022-08-18T12:34:01.071Z,8.17
2022-08-18T12:36:04.662Z,8.90
2022-08-18T12:38:12.904Z,9.23
2022-08-18T12:40:15.787Z,8.20
2022-08-18T12:42:18.756Z,8.27
2022-08-18T12:44:22.056Z,8.13
2022-08-18T12:46:25.509Z,8.00
2022-08-18T12:48:29.207Z,8.30
2022-08-18T12:50:35.143Z,9.27
2022-08-18T12:52:39.920Z,8.33
2022-08-18T12:54:55.141Z,8.80
2022-08-18T12:56:58.594Z,7.77
2022-08-18T12:59:05.136Z,7.70
2022-08-18T13:01:07.535Z,8.23
2022-08-18T13:03:09.823Z,7.33
2022-08-18T13:05:12.245Z,7.47
2022-08-18T13:07:15.967Z,8.00
2022-08-18T13:09:47.642Z,7.63
2022-08-18T13:11:43.885Z,7.80
2022-08-18T13:13:46.588Z,7.80
2022-08-18T13:15:57.761Z,7.70
2022-08-18T13:18:02.834Z,7.90
2022-08-18T13:20:09.634Z,8.17
2022-08-18T13:22:12.278Z,8.07
2022-08-18T13:24:16.455Z,7.60
2022-08-18T13:26:29.560Z,7.47
2022-08-18T13:28:33.544Z,7.63
2022-08-18T13:30:38.551Z,7.73
2022-08-18T13:32:58.357Z,7.90
2022-08-18T13:35:02.647Z,7.93
2022-08-18T13:37:11.162Z,7.83
2022-08-18T13:39:17.880Z,8.70
2022-08-18T13:41:23.462Z,9.00
2022-08-18T13:43:32.350Z,8.60
2022-08-18T13:45:36.466Z,8.70
2022-08-18T13:47:39.580Z,8.37
2022-08-18T13:49:58.323Z,8.00
2022-08-18T13:52:03.389Z,8.57
2022-08-18T13:54:29.488Z,9.00
2022-08-18T13:56:32.827Z,8.50
2022-08-18T13:58:34.945Z,8.70
2022-08-18T14:00:37.116Z,7.77
2022-08-18T14:02:40.080Z,8.20
2022-08-18T14:04:44.431Z,7.80
2022-08-18T14:06:56.532Z,7.40
2022-08-18T14:09:00.206Z,7.27
2022-08-18T14:11:03.212Z,8.17
2022-08-18T14:13:19.917Z,8.70
2022-08-18T14:15:23.326Z,7.73
2022-08-18T14:17:26.205Z,7.87
2022-08-18T14:19:47.181Z,7.53
2022-08-18T14:22:11.123Z,8.07
2022-08-18T14:24:32.272Z,8.33
2022-08-18T14:26:49.957Z,7.90
2022-08-18T14:28:52.711Z,7.90
2022-08-18T14:30:55.352Z,7.97
2022-08-18T14:32:59.050Z,7.87
2022-08-18T14:35:33.654Z,7.87
2022-08-18T14:37:26.099Z,7.93
2022-08-18T14:39:28.404Z,8.97
2022-08-18T14:41:40.978Z,7.73
2022-08-18T14:44:13.674Z,8.70
2022-08-18T14:46:16.990Z,9.20
2022-08-18T14:48:22.184Z,8.20
2022-08-18T14:50:26.092Z,8.30
2022-08-18T14:52:28.277Z,9.30
2022-08-18T14:54:31.248Z,9.93
2022-08-18T14:56:38.771Z,8.37
2022-08-18T14:58:41.361Z,10.03
2022-08-18T15:00:53.486Z,9.17
2022-08-18T15:02:59.550Z,9.43
2022-08-18T15:05:01.989Z,9.70
2022-08-18T15:07:24.091Z,9.57
2022-08-18T15:09:27.537Z,9.10
2022-08-18T15:11:29.770Z,9.97
2022-08-18T15:13:34.947Z,10.40
2022-08-18T15:15:42.334Z,10.80
2022-08-18T15:17:53.402Z,9.60
2022-08-18T15:20:00.653Z,13.37
2022-08-18T15:22:21.979Z,9.00
2022-08-18T15:24:43.153Z,8.90
2022-08-18T15:26:45.941Z,8.87
2022-08-18T15:28:48.064Z,9.80
2022-08-18T15:31:17.861Z,8.90
2022-08-18T15:33:16.070Z,8.10
2022-08-18T15:35:19.840Z,9.07
2022-08-18T15:37:24.284Z,9.00
2022-08-18T15:39:26.960Z,9.97
2022-08-18T15:41:43.965Z,9.77
2022-08-18T15:43:46.550Z,9.10
2022-08-18T15:45:56.115Z,9.37
2022-08-18T15:47:59.891Z,9.90
2022-08-18T15:50:06.867Z,9.70
2022-08-18T15:52:26.199Z,8.43
2022-08-18T15:54:28.419Z,9.10
2022-08-18T15:56:31.696Z,9.27
2022-08-18T15:58:33.884Z,8.60
2022-08-18T16:00:39.347Z,9.27
2022-08-18T16:02:48.335Z,8.57
2022-08-18T16:04:50.850Z,9.07
2022-08-18T16:06:56.249Z,8.70
2022-08-18T16:08:58.414Z,9.20
2022-08-18T16:11:07.986Z,8.83
2022-08-18T16:13:10.269Z,8.80
2022-08-18T16:15:19.852Z,8.80
2022-08-18T16:17:30.073Z,10.40
2022-08-18T16:19:33.701Z,8.60
2022-08-18T16:21:39.941Z,9.87
2022-08-18T16:23:44.527Z,9.43
2022-08-18T16:25:46.702Z,9.97
2022-08-18T16:27:49.121Z,9.83
2022-08-18T16:29:51.292Z,10.13
2022-08-18T16:31:53.407Z,11.77
2022-08-18T16:33:57.186Z,9.50
2022-08-18T16:36:07.386Z,10.43
2022-08-18T16:38:09.771Z,10.60
2022-08-18T16:40:13.102Z,11.00
2022-08-18T16:42:16.169Z,10.67
2022-08-18T16:44:19.364Z,10.30
2022-08-18T16:46:25.260Z,10.43
2022-08-18T16:50:35.463Z,10.90
2022-08-18T16:52:37.984Z,10.57
2022-08-18T16:54:40.117Z,10.07
2022-08-18T16:56:42.299Z,10.53
2022-08-18T16:59:02.868Z,9.90
2022-08-18T17:01:26.342Z,10.63
2022-08-18T17:03:54.580Z,11.00
2022-08-18T17:06:12.207Z,10.20
2022-08-18T17:08:14.964Z,10.93
2022-08-18T17:10:17.097Z,11.00
2022-08-18T17:12:26.257Z,10.20
2022-08-18T17:14:30.325Z,10.43
2022-08-18T17:16:32.404Z,10.30
2022-08-18T17:18:36.134Z,10.70
2022-08-18T17:20:38.336Z,10.27
2022-08-18T17:22:40.482Z,10.17
2022-08-18T17:24:49.403Z,10.40
2022-08-18T17:26:58.838Z,10.23
2022-08-18T17:29:18.378Z,10.13
2022-08-18T17:31:21.080Z,10.80
2022-08-18T17:33:26.719Z,9.10
2022-08-18T17:35:34.775Z,9.53
2022-08-18T17:37:37.553Z,10.47
2022-08-18T17:39:50.142Z,10.37
2022-08-18T17:42:11.207Z,10.13
2022-08-18T17:44:13.316Z,9.37
2022-08-18T17:46:27.444Z,11.80
2022-08-18T17:48:38.152Z,9.20
2022-08-18T17:51:21.530Z,9.77
2022-08-18T17:53:25.053Z,9.60
2022-08-18T17:55:59.746Z,9.50
2022-08-18T17:58:11.103Z,10.60
2022-08-18T18:00:17.748Z,9.70
2022-08-18T18:02:29.697Z,10.50
2022-08-18T18:04:32.785Z,12.30
2022-08-18T18:06:34.883Z,10.73
2022-08-18T18:09:00.019Z,10.57
2022-08-18T18:11:11.320Z,9.93
2022-08-18T18:13:16.515Z,10.90
2022-08-18T18:15:31.043Z,10.30
2022-08-18T18:17:40.182Z,12.30
2022-08-18T18:19:50.057Z,10.20
2022-08-18T18:22:18.529Z,10.63
2022-08-18T18:24:24.419Z,11.37
2022-08-18T18:26:30.427Z,10.37
2022-08-18T18:28:35.412Z,11.20
2022-08-18T18:30:37.497Z,11.87
2022-08-18T18:32:59.214Z,12.03
2022-08-18T18:35:16.604Z,12.70
2022-08-18T18:37:32.527Z,11.20
2022-08-18T18:39:36.136Z,11.87
2022-08-18T18:41:40.035Z,12.20
2022-08-18T18:43:47.509Z,10.67
2022-08-18T18:46:05.437Z,10.50
2022-08-18T18:48:47.393Z,11.60
2022-08-18T18:50:59.049Z,11.90
2022-08-18T18:53:35.890Z,11.37
2022-08-18T18:55:57.699Z,11.90
2022-08-18T18:58:17.095Z,11.57
2022-08-18T19:00:27.523Z,12.23
2022-08-18T19:02:40.768Z,12.27
2022-08-18T19:05:02.241Z,11.30
2022-08-18T19:07:59.654Z,12.23
2022-08-18T19:10:10.556Z,11.00
2022-08-18T19:12:24.781Z,11.97
2022-08-18T19:14:37.302Z,11.20
2022-08-18T19:16:52.844Z,10.50
2022-08-18T19:19:37.325Z,10.30
2022-08-18T19:22:03.234Z,9.87
2022-08-18T19:24:12.408Z,10.63
2022-08-18T19:26:22.708Z,10.87
2022-08-18T19:29:11.923Z,10.83
2022-08-18T19:31:14.280Z,10.33
2022-08-18T19:33:32.682Z,11.10
2022-08-18T19:35:50.242Z,13.67
2022-08-18T19:38:09.639Z,12.73
2022-08-18T19:40:20.132Z,12.57
2022-08-18T19:42:35.141Z,11.87
2022-08-18T19:44:55.421Z,13.90
2022-08-18T19:47:17.970Z,13.50
2022-08-18T19:50:02.798Z,12.93
2022-08-18T19:52:43.010Z,13.60
2022-08-18T19:54:53.713Z,12.60
2022-08-18T19:57:26.577Z,14.37
2022-08-18T19:59:47.405Z,13.30
2022-08-18T20:01:52.127Z,13.53
2022-08-18T20:04:13.866Z,13.70
2022-08-18T20:06:35.992Z,13.87
2022-08-18T20:08:47.366Z,13.43
2022-08-18T20:11:00.226Z,13.03
2022-08-18T20:13:20.801Z,14.37
2022-08-18T20:15:25.478Z,14.13
2022-08-18T20:17:27.637Z,13.87
2022-08-18T20:19:35.865Z,14.83
2022-08-18T20:21:45.390Z,14.03
2022-08-18T20:23:56.916Z,13.80
2022-08-18T20:25:59.199Z,13.20
2022-08-18T20:28:02.288Z,14.43
2022-08-18T20:30:19.814Z,13.63
2022-08-18T20:32:31.998Z,13.27
2022-08-18T20:34:35.613Z,13.33
2022-08-18T20:36:39.984Z,13.70
2022-08-18T20:38:48.048Z,12.70
2022-08-18T20:40:51.344Z,13.40
2022-08-18T20:42:56.371Z,12.87
2022-08-18T20:45:20.781Z,14.47
2022-08-18T20:47:55.102Z,12.57
2022-08-18T20:50:16.238Z,12.40
2022-08-18T20:52:29.251Z,14.60
2022-08-18T20:55:11.730Z,12.03
2022-08-18T20:57:14.914Z,12.90
2022-08-18T20:59:20.677Z,11.90
2022-08-18T21:01:26.540Z,13.33
2022-08-18T21:03:43.625Z,13.20
2022-08-18T21:05:46.652Z,12.80
2022-08-18T21:08:13.566Z,13.90
2022-08-18T21:10:22.082Z,12.50
2022-08-18T21:12:27.248Z,14.43
2022-08-18T21:14:30.720Z,14.13
2022-08-18T21:16:50.933Z,15.37
2022-08-18T21:19:17.884Z,14.60
2022-08-18T21:21:28.224Z,13.27
2022-08-18T21:23:34.139Z,13.20
2022-08-18T21:25:36.791Z,15.23
2022-08-18T21:27:40.425Z,14.20
2022-08-18T21:29:49.352Z,14.77
2022-08-18T21:31:51.955Z,15.20
2022-08-18T21:34:04.655Z,16.33
2022-08-18T21:36:11.863Z,14.60
2022-08-18T21:38:13.969Z,15.20
2022-08-18T21:40:16.129Z,14.67
2022-08-18T21:42:26.100Z,15.57
2022-08-18T21:44:42.719Z,15.90
2022-08-18T21:46:46.097Z,15.27
2022-08-18T21:48:51.046Z,15.73
2022-08-18T21:51:01.266Z,15.73
2022-08-18T21:53:17.788Z,17.97
2022-08-18T21:55:36.161Z,18.33
2022-08-18T21:58:04.523Z,17.30
2022-08-18T22:00:23.391Z,18.83
2022-08-18T22:02:25.497Z,17.93
2022-08-18T22:04:35.945Z,19.37
2022-08-18T22:06:40.888Z,19.17
2022-08-18T22:08:51.484Z,19.50
2022-08-18T22:11:51.853Z,20.90
2022-08-18T22:13:59.178Z,22.50
2022-08-18T22:16:27.068Z,20.03
2022-08-18T22:18:38.439Z,20.03
2022-08-18T22:21:00.210Z,20.60
2022-08-18T22:23:32.881Z,22.00
2022-08-18T22:25:35.015Z,23.10
2022-08-18T22:27:37.406Z,23.33
2022-08-18T22:29:50.988Z,24.30
2022-08-18T22:31:54.841Z,23.53
2022-08-18T22:34:01.598Z,21.83
2022-08-18T22:36:04.879Z,23.43
2022-08-18T22:38:07.008Z,21.53
2022-08-18T22:40:13.421Z,21.43
2022-08-18T22:42:16.731Z,22.70
2022-08-18T22:44:19.050Z,21.53
2022-08-18T22:46:24.435Z,22.30
2022-08-18T22:48:26.903Z,23.40
2022-08-18T22:50:29.099Z,23.90
2022-08-18T22:52:38.037Z,23.27
2022-08-18T22:54:40.170Z,24.40
2022-08-18T22:56:54.046Z,22.53
2022-08-18T22:58:58.905Z,22.73
2022-08-18T23:01:05.552Z,23.33
2022-08-18T23:03:08.189Z,24.03
2022-08-18T23:05:11.027Z,23.80
2022-08-18T23:07:13.709Z,23.90
2022-08-18T23:09:15.685Z,23.70
2022-08-18T23:11:17.648Z,24.27
2022-08-18T23:13:19.731Z,23.00
2022-08-18T23:15:23.436Z,24.00
2022-08-18T23:17:25.397Z,22.40
2022-08-18T23:19:29.179Z,24.43
2022-08-18T23:21:34.611Z,25.90
2022-08-18T23:23:37.687Z,25.30
2022-08-18T23:25:40.047Z,25.30
2022-08-18T23:27:42.998Z,24.90
2022-08-18T23:29:45.189Z,24.40
2022-08-18T23:31:48.931Z,24.50
2022-08-18T23:33:51.420Z,25.13
2022-08-18T23:35:53.566Z,25.33
2022-08-18T23:37:55.594Z,23.50
2022-08-18T23:39:57.721Z,22.90
2022-08-18T23:42:00.715Z,27.17
2022-08-18T23:44:02.908Z,23.93
2022-08-18T23:46:06.049Z,25.47
2022-08-18T23:48:10.003Z,24.00
2022-08-18T23:50:12.350Z,23.80
2022-08-18T23:52:14.334Z,24.80
2022-08-18T23:54:22.586Z,24.80
2022-08-18T23:56:26.396Z,24.87
2022-08-18T23:58:28.458Z,24.90
